createdAt,value
2018-03-19T00:00:05.167Z,-5.80
2018-03-19T00:01:04.972Z,-5.80
2018-03-19T00:02:05.016Z,-5.80
2018-03-19T00:03:04.750Z,-5.80
2018-03-19T00:04:05.446Z,-5.80
2018-03-19T00:05:04.821Z,-5.80
2018-03-19T00:06:04.656Z,-5.80
2018-03-19T00:07:05.456Z,-5.80
2018-03-19T00:08:04.955Z,-5.80
2018-03-19T00:09:04.969Z,-5.80
2018-03-19T00:10:05.372Z,-5.80
2018-03-19T00:11:04.952Z,-5.80
2018-03-19T00:12:05.610Z,-5.80
2018-03-19T00:13:05.492Z,-5.80
2018-03-19T00:14:05.324Z,-5.80
2018-03-19T00:15:05.171Z,-5.80
2018-03-19T00:16:05.175Z,-5.80
2018-03-19T00:17:04.990Z,-5.80
2018-03-19T00:18:04.979Z,-5.90
2018-03-19T00:19:04.919Z,-5.90
2018-03-19T00:20:04.848Z,-5.90
2018-03-19T00:21:04.935Z,-5.90
2018-03-19T00:22:05.100Z,-5.90
2018-03-19T00:23:04.878Z,-5.90
2018-03-19T00:24:05.730Z,-5.90
2018-03-19T00:25:04.814Z,-5.90
2018-03-19T00:26:04.728Z,-5.90
2018-03-19T00:27:10.458Z,-5.90
2018-03-19T00:28:04.801Z,-5.90
2018-03-19T00:29:04.878Z,-5.90
2018-03-19T00:30:05.321Z,-5.90
2018-03-19T00:31:05.325Z,-5.90
2018-03-19T00:32:04.695Z,-5.90
2018-03-19T00:33:04.803Z,-5.90
2018-03-19T00:34:05.053Z,-6.00
2018-03-19T00:35:04.784Z,-5.90
2018-03-19T00:36:05.676Z,-6.00
2018-03-19T00:37:05.113Z,-6.00
2018-03-19T00:38:05.024Z,-6.00
2018-03-19T00:39:05.047Z,-6.00
2018-03-19T00:40:05.009Z,-6.00
2018-03-19T00:41:05.023Z,-6.00
2018-03-19T00:42:05.656Z,-6.00
2018-03-19T00:43:05.585Z,-6.00
2018-03-19T00:44:05.254Z,-6.00
2018-03-19T00:45:05.181Z,-6.00
2018-03-19T00:46:05.063Z,-6.00
2018-03-19T00:47:05.035Z,-6.00
2018-03-19T00:48:05.105Z,-6.00
2018-03-19T00:49:04.966Z,-6.00
2018-03-19T00:50:04.836Z,-6.00
2018-03-19T00:51:05.362Z,-6.00
2018-03-19T00:52:05.457Z,-6.00
2018-03-19T00:53:04.805Z,-6.00
2018-03-19T00:54:04.914Z,-6.00
2018-03-19T00:55:05.205Z,-6.00
2018-03-19T00:56:04.953Z,-6.00
2018-03-19T00:57:04.973Z,-6.00
2018-03-19T00:58:04.836Z,-6.10
2018-03-19T00:59:05.642Z,-6.10
2018-03-19T01:00:05.070Z,-6.10
2018-03-19T01:01:04.937Z,-6.10
2018-03-19T01:02:05.370Z,-6.10
2018-03-19T01:03:05.468Z,-6.10
2018-03-19T01:04:04.561Z,-6.10
2018-03-19T01:05:05.421Z,-6.10
2018-03-19T01:06:05.335Z,-6.10
2018-03-19T01:07:05.223Z,-6.10
2018-03-19T01:08:05.648Z,-6.10
2018-03-19T01:09:05.010Z,-6.10
2018-03-19T01:10:05.341Z,-6.20
2018-03-19T01:11:05.050Z,-6.20
2018-03-19T01:12:05.008Z,-6.20
2018-03-19T01:13:05.204Z,-6.20
2018-03-19T01:14:05.327Z,-6.20
2018-03-19T01:15:05.266Z,-6.20
2018-03-19T01:16:05.300Z,-6.20
2018-03-19T01:17:04.765Z,-6.20
2018-03-19T01:18:04.677Z,-6.20
2018-03-19T01:19:04.703Z,-6.20
2018-03-19T01:20:04.756Z,-6.20
2018-03-19T01:21:05.598Z,-6.20
2018-03-19T01:22:05.621Z,-6.20
2018-03-19T01:23:05.317Z,-6.30
2018-03-19T01:24:05.023Z,-6.20
2018-03-19T01:25:05.226Z,-6.30
2018-03-19T01:26:05.477Z,-6.30
2018-03-19T01:27:05.205Z,-6.30
2018-03-19T01:28:05.552Z,-6.30
2018-03-19T01:29:05.189Z,-6.30
2018-03-19T01:30:05.126Z,-6.30
2018-03-19T01:31:04.649Z,-6.30
2018-03-19T01:32:04.702Z,-6.30
2018-03-19T01:33:04.583Z,-6.30
2018-03-19T01:34:05.286Z,-6.30
2018-03-19T01:35:05.255Z,-6.30
2018-03-19T01:36:04.713Z,-6.30
2018-03-19T01:37:05.710Z,-6.40
2018-03-19T01:38:05.473Z,-6.40
2018-03-19T01:39:04.721Z,-6.30
2018-03-19T01:40:05.600Z,-6.30
2018-03-19T01:41:05.436Z,-6.30
2018-03-19T01:42:04.750Z,-6.40
2018-03-19T01:43:05.330Z,-6.40
2018-03-19T01:44:05.039Z,-6.40
2018-03-19T01:45:05.361Z,-6.40
2018-03-19T01:46:05.494Z,-6.40
2018-03-19T01:47:05.687Z,-6.40
2018-03-19T01:48:04.865Z,-6.40
2018-03-19T01:49:04.739Z,-6.40
2018-03-19T01:50:05.385Z,-6.40
2018-03-19T01:51:04.968Z,-6.40
2018-03-19T01:52:05.562Z,-6.40
2018-03-19T01:53:05.158Z,-6.40
2018-03-19T01:54:05.854Z,-6.50
2018-03-19T01:55:05.533Z,-6.50
2018-03-19T01:56:05.252Z,-6.50
2018-03-19T01:57:05.068Z,-6.50
2018-03-19T01:58:05.079Z,-6.50
2018-03-19T01:59:05.253Z,-6.50
2018-03-19T02:00:04.854Z,-6.50
2018-03-19T02:01:04.892Z,-6.50
2018-03-19T02:02:05.242Z,-6.50
2018-03-19T02:03:04.954Z,-6.50
2018-03-19T02:04:04.906Z,-6.50
2018-03-19T02:05:04.647Z,-6.50
2018-03-19T02:06:04.854Z,-6.50
2018-03-19T02:07:09.842Z,-6.50
2018-03-19T02:08:04.735Z,-6.50
2018-03-19T02:09:05.063Z,-6.50
2018-03-19T02:10:05.103Z,-6.50
2018-03-19T02:11:05.586Z,-6.50
2018-03-19T02:12:05.256Z,-6.50
2018-03-19T02:13:04.913Z,-6.50
2018-03-19T02:14:05.036Z,-6.50
2018-03-19T02:15:04.997Z,-6.50
2018-03-19T02:16:05.093Z,-6.50
2018-03-19T02:17:05.350Z,-6.50
2018-03-19T02:18:05.113Z,-6.60
2018-03-19T02:19:05.581Z,-6.60
2018-03-19T02:20:05.308Z,-6.60
2018-03-19T02:21:04.960Z,-6.60
2018-03-19T02:22:05.455Z,-6.60
2018-03-19T02:23:05.385Z,-6.60
2018-03-19T02:24:05.129Z,-6.60
2018-03-19T02:25:04.851Z,-6.60
2018-03-19T02:26:04.821Z,-6.60
2018-03-19T02:27:05.062Z,-6.60
2018-03-19T02:28:05.169Z,-6.60
2018-03-19T02:29:04.829Z,-6.60
2018-03-19T02:30:05.249Z,-6.60
2018-03-19T02:31:04.986Z,-6.60
2018-03-19T02:32:05.025Z,-6.60
2018-03-19T02:33:04.850Z,-6.60
2018-03-19T02:34:04.740Z,-6.60
2018-03-19T02:35:05.104Z,-6.70
2018-03-19T02:36:04.772Z,-6.70
2018-03-19T02:37:05.262Z,-6.70
2018-03-19T02:38:05.615Z,-6.70
2018-03-19T02:39:05.538Z,-6.70
2018-03-19T02:40:04.775Z,-6.70
2018-03-19T02:41:05.626Z,-6.70
2018-03-19T02:42:05.444Z,-6.70
2018-03-19T02:43:05.080Z,-6.70
2018-03-19T02:44:05.055Z,-6.70
2018-03-19T02:45:05.170Z,-6.70
2018-03-19T02:46:05.297Z,-6.70
2018-03-19T02:47:05.452Z,-6.70
2018-03-19T02:48:04.692Z,-6.70
2018-03-19T02:49:05.388Z,-6.80
2018-03-19T02:50:05.282Z,-6.70
2018-03-19T02:51:04.771Z,-6.80
2018-03-19T02:52:05.009Z,-6.80
2018-03-19T02:53:04.856Z,-6.80
2018-03-19T02:54:04.776Z,-6.80
2018-03-19T02:55:04.820Z,-6.80
2018-03-19T02:56:05.567Z,-6.80
2018-03-19T02:57:05.573Z,-6.80
2018-03-19T02:58:05.406Z,-6.80
2018-03-19T02:59:04.880Z,-6.80
2018-03-19T03:00:04.653Z,-6.80
2018-03-19T03:01:05.397Z,-6.90
2018-03-19T03:02:05.382Z,-6.80
2018-03-19T03:03:05.083Z,-6.90
2018-03-19T03:04:05.654Z,-6.90
2018-03-19T03:05:05.282Z,-6.90
2018-03-19T03:06:04.780Z,-6.90
2018-03-19T03:07:05.178Z,-6.90
2018-03-19T03:08:05.028Z,-6.90
2018-03-19T03:09:04.860Z,-6.90
2018-03-19T03:10:05.003Z,-6.90
2018-03-19T03:11:04.905Z,-6.90
2018-03-19T03:12:05.022Z,-6.90
2018-03-19T03:13:04.825Z,-6.90
2018-03-19T03:14:04.831Z,-6.90
2018-03-19T03:15:04.721Z,-6.90
2018-03-19T03:16:05.463Z,-6.90
2018-03-19T03:17:04.928Z,-6.90
2018-03-19T03:18:05.012Z,-6.90
2018-03-19T03:19:05.528Z,-7.00
2018-03-19T03:20:04.854Z,-7.00
2018-03-19T03:21:05.042Z,-7.00
2018-03-19T03:22:05.081Z,-7.00
2018-03-19T03:23:05.437Z,-7.00
2018-03-19T03:24:05.089Z,-7.00
2018-03-19T03:25:05.618Z,-7.00
2018-03-19T03:26:05.116Z,-7.00
2018-03-19T03:27:05.189Z,-7.00
2018-03-19T03:28:05.415Z,-7.00
2018-03-19T03:29:05.146Z,-7.00
2018-03-19T03:30:05.074Z,-7.00
2018-03-19T03:31:06.619Z,-7.00
2018-03-19T03:32:05.540Z,-7.00
2018-03-19T03:33:05.267Z,-7.00
2018-03-19T03:34:05.226Z,-7.00
2018-03-19T03:35:05.641Z,-7.10
2018-03-19T03:36:05.134Z,-7.10
2018-03-19T03:37:05.668Z,-7.10
2018-03-19T03:38:05.548Z,-7.10
2018-03-19T03:39:04.713Z,-7.10
2018-03-19T03:40:05.682Z,-7.10
2018-03-19T03:41:05.409Z,-7.10
2018-03-19T03:42:05.602Z,-7.10
2018-03-19T03:43:05.374Z,-7.10
2018-03-19T03:44:05.343Z,-7.10
2018-03-19T03:45:04.939Z,-7.10
2018-03-19T03:46:05.574Z,-7.20
2018-03-19T03:47:05.296Z,-7.20
2018-03-19T03:48:04.992Z,-7.20
2018-03-19T03:49:04.882Z,-7.20
2018-03-19T03:50:05.417Z,-7.20
2018-03-19T03:51:04.986Z,-7.20
2018-03-19T03:52:05.022Z,-7.20
2018-03-19T03:53:04.804Z,-7.20
2018-03-19T03:54:05.686Z,-7.20
2018-03-19T03:55:04.761Z,-7.20
2018-03-19T03:56:04.736Z,-7.20
2018-03-19T03:57:04.997Z,-7.20
2018-03-19T03:58:05.258Z,-7.20
2018-03-19T03:59:05.624Z,-7.30
2018-03-19T04:00:04.767Z,-7.30
2018-03-19T04:01:05.163Z,-7.30
2018-03-19T04:02:04.691Z,-7.30
2018-03-19T04:03:04.799Z,-7.30
2018-03-19T04:04:04.957Z,-7.30
2018-03-19T04:05:05.407Z,-7.30
2018-03-19T04:06:05.361Z,-7.30
2018-03-19T04:07:04.910Z,-7.30
2018-03-19T04:08:04.693Z,-7.40
2018-03-19T04:09:05.550Z,-7.40
2018-03-19T04:10:05.108Z,-7.40
2018-03-19T04:11:05.625Z,-7.40
2018-03-19T04:12:05.279Z,-7.40
2018-03-19T04:13:04.894Z,-7.40
2018-03-19T04:14:05.506Z,-7.40
2018-03-19T04:15:05.214Z,-7.40
2018-03-19T04:16:04.663Z,-7.40
2018-03-19T04:17:05.619Z,-7.40
2018-03-19T04:18:04.672Z,-7.40
2018-03-19T04:19:05.442Z,-7.40
2018-03-19T04:20:04.908Z,-7.40
2018-03-19T04:21:05.372Z,-7.40
2018-03-19T04:22:05.156Z,-7.40
2018-03-19T04:23:04.956Z,-7.50
2018-03-19T04:24:04.612Z,-7.50
2018-03-19T04:25:05.669Z,-7.50
2018-03-19T04:26:05.628Z,-7.50
2018-03-19T04:27:05.554Z,-7.50
2018-03-19T04:28:05.480Z,-7.50
2018-03-19T04:29:05.435Z,-7.50
2018-03-19T04:30:05.263Z,-7.50
2018-03-19T04:31:05.164Z,-7.50
2018-03-19T04:32:05.168Z,-7.50
2018-03-19T04:33:04.666Z,-7.60
2018-03-19T04:34:05.031Z,-7.60
2018-03-19T04:35:04.887Z,-7.60
2018-03-19T04:36:05.140Z,-7.60
2018-03-19T04:37:05.169Z,-7.60
2018-03-19T04:38:04.873Z,-7.60
2018-03-19T04:39:05.140Z,-7.60
2018-03-19T04:40:05.309Z,-7.60
2018-03-19T04:41:04.975Z,-7.70
2018-03-19T04:42:04.635Z,-7.70
2018-03-19T04:43:05.065Z,-7.70
2018-03-19T04:44:05.576Z,-7.70
2018-03-19T04:45:05.044Z,-7.70
2018-03-19T04:46:04.729Z,-7.70
2018-03-19T04:47:04.815Z,-7.70
2018-03-19T04:48:04.992Z,-7.80
2018-03-19T04:49:05.163Z,-7.70
2018-03-19T04:50:05.590Z,-7.70
2018-03-19T04:51:05.272Z,-7.80
2018-03-19T04:52:05.404Z,-7.80
2018-03-19T04:53:05.318Z,-7.80
2018-03-19T04:54:05.418Z,-7.80
2018-03-19T04:55:05.224Z,-7.80
2018-03-19T04:56:05.032Z,-7.80
2018-03-19T04:57:04.924Z,-7.80
2018-03-19T04:58:04.923Z,-7.80
2018-03-19T04:59:04.625Z,-7.80
2018-03-19T05:00:04.759Z,-7.80
2018-03-19T05:01:05.300Z,-7.80
2018-03-19T05:02:05.289Z,-7.90
2018-03-19T05:03:05.025Z,-7.90
2018-03-19T05:04:05.324Z,-7.90
2018-03-19T05:05:04.693Z,-7.90
2018-03-19T05:06:05.588Z,-7.90
2018-03-19T05:07:05.007Z,-7.90
2018-03-19T05:08:05.391Z,-7.90
2018-03-19T05:09:05.399Z,-7.90
2018-03-19T05:10:05.395Z,-7.90
2018-03-19T05:11:05.180Z,-8.00
2018-03-19T05:12:06.035Z,-8.00
2018-03-19T05:13:04.810Z,-8.00
2018-03-19T05:14:05.035Z,-8.00
2018-03-19T05:15:04.778Z,-8.00
2018-03-19T05:16:05.123Z,-8.00
2018-03-19T05:17:04.880Z,-8.00
2018-03-19T05:18:05.117Z,-8.00
2018-03-19T05:19:05.053Z,-8.00
2018-03-19T05:20:05.560Z,-8.00
2018-03-19T05:21:05.157Z,-8.00
2018-03-19T05:22:04.940Z,-8.00
2018-03-19T05:23:05.600Z,-8.00
2018-03-19T05:24:05.448Z,-7.90
2018-03-19T05:25:06.354Z,-7.90
2018-03-19T05:26:05.059Z,-7.90
2018-03-19T05:27:05.004Z,-7.90
2018-03-19T05:28:05.237Z,-7.90
2018-03-19T05:29:05.153Z,-7.90
2018-03-19T05:30:05.051Z,-7.90
2018-03-19T05:31:05.691Z,-7.90
2018-03-19T05:32:05.054Z,-7.90
2018-03-19T05:33:04.858Z,-7.90
2018-03-19T05:34:05.041Z,-7.90
2018-03-19T05:35:05.122Z,-7.90
2018-03-19T05:36:05.453Z,-7.90
2018-03-19T05:37:05.501Z,-7.90
2018-03-19T05:38:05.571Z,-7.90
2018-03-19T05:39:05.369Z,-7.80
2018-03-19T05:40:05.884Z,-7.80
2018-03-19T05:41:05.143Z,-7.80
2018-03-19T05:42:05.960Z,-7.80
2018-03-19T05:43:05.070Z,-7.80
2018-03-19T05:44:04.950Z,-7.80
2018-03-19T05:45:05.327Z,-7.80
2018-03-19T05:46:05.205Z,-7.80
2018-03-19T05:47:05.294Z,-7.80
2018-03-19T05:48:05.508Z,-7.80
2018-03-19T05:49:05.699Z,-7.80
2018-03-19T05:50:05.324Z,-7.80
2018-03-19T05:51:05.277Z,-7.70
2018-03-19T05:52:04.945Z,-7.70
2018-03-19T05:53:04.762Z,-7.70
2018-03-19T05:54:05.627Z,-7.60
2018-03-19T05:55:05.097Z,-7.50
2018-03-19T05:56:05.579Z,-7.40
2018-03-19T05:57:04.929Z,-7.30
2018-03-19T05:58:05.518Z,-7.10
2018-03-19T05:59:05.518Z,-7.00
2018-03-19T06:00:05.402Z,-6.80
2018-03-19T06:01:05.186Z,-6.70
2018-03-19T06:02:05.530Z,-6.50
2018-03-19T06:03:05.562Z,-6.40
2018-03-19T06:04:05.469Z,-6.30
2018-03-19T06:05:04.929Z,-6.10
2018-03-19T06:06:05.103Z,-6.00
2018-03-19T06:07:05.294Z,-5.80
2018-03-19T06:08:05.202Z,-5.70
2018-03-19T06:09:05.368Z,-5.60
2018-03-19T06:10:05.373Z,-5.50
2018-03-19T06:11:04.869Z,-5.40
2018-03-19T06:12:06.472Z,-5.30
2018-03-19T06:13:05.053Z,-5.20
2018-03-19T06:14:04.865Z,-5.10
2018-03-19T06:15:04.684Z,-5.00
2018-03-19T06:16:05.218Z,-4.90
2018-03-19T06:17:05.272Z,-4.80
2018-03-19T06:18:04.663Z,-4.70
2018-03-19T06:19:04.892Z,-4.60
2018-03-19T06:20:05.149Z,-4.60
2018-03-19T06:21:05.228Z,-4.50
2018-03-19T06:22:05.272Z,-4.50
2018-03-19T06:23:05.396Z,-4.50
2018-03-19T06:24:04.794Z,-4.40
2018-03-19T06:25:05.196Z,-4.40
2018-03-19T06:26:04.875Z,-4.40
2018-03-19T06:27:05.470Z,-4.30
2018-03-19T06:28:05.630Z,-4.30
2018-03-19T06:29:05.460Z,-4.20
2018-03-19T06:30:05.109Z,-4.20
2018-03-19T06:31:04.747Z,-4.20
2018-03-19T06:32:05.397Z,-4.10
2018-03-19T06:33:06.684Z,-4.10
2018-03-19T06:34:05.080Z,-4.10
2018-03-19T06:35:04.872Z,-4.00
2018-03-19T06:36:05.584Z,-4.00
2018-03-19T06:37:05.215Z,-4.00
2018-03-19T06:38:05.052Z,-4.00
2018-03-19T06:39:06.475Z,-3.90
2018-03-19T06:40:04.975Z,-3.90
2018-03-19T06:41:05.570Z,-3.80
2018-03-19T06:42:04.805Z,-3.80
2018-03-19T06:43:05.313Z,-3.70
2018-03-19T06:44:04.807Z,-3.60
2018-03-19T06:45:04.585Z,-3.60
2018-03-19T06:46:05.281Z,-3.60
2018-03-19T06:47:06.295Z,-3.60
2018-03-19T06:48:05.323Z,-3.60
2018-03-19T06:49:05.398Z,-3.50
2018-03-19T06:50:05.491Z,-3.50
2018-03-19T06:51:05.483Z,-3.50
2018-03-19T06:52:05.449Z,-3.40
2018-03-19T06:53:05.062Z,-3.40
2018-03-19T06:54:04.992Z,-3.40
2018-03-19T06:55:05.115Z,-3.30
2018-03-19T06:56:04.892Z,-3.30
2018-03-19T06:57:04.961Z,-3.30
2018-03-19T06:58:05.132Z,-3.20
2018-03-19T06:59:05.293Z,-3.20
2018-03-19T07:00:04.891Z,-3.30
2018-03-19T07:01:05.525Z,-3.30
2018-03-19T07:02:05.337Z,-3.30
2018-03-19T07:03:05.548Z,-3.30
2018-03-19T07:04:04.683Z,-3.30
2018-03-19T07:05:04.894Z,-3.20
2018-03-19T07:06:04.808Z,-3.20
2018-03-19T07:07:04.694Z,-3.10
2018-03-19T07:08:05.101Z,-3.10
2018-03-19T07:09:05.020Z,-3.10
2018-03-19T07:10:05.047Z,-3.10
2018-03-19T07:11:05.060Z,-3.00
2018-03-19T07:12:04.763Z,-3.00
2018-03-19T07:13:04.741Z,-3.00
2018-03-19T07:14:05.598Z,-3.00
2018-03-19T07:15:05.400Z,-3.00
2018-03-19T07:16:04.746Z,-3.00
2018-03-19T07:17:05.283Z,-3.00
2018-03-19T07:18:05.190Z,-3.00
2018-03-19T07:19:04.987Z,-3.00
2018-03-19T07:20:04.941Z,-3.00
2018-03-19T07:21:04.604Z,-3.00
2018-03-19T07:22:04.829Z,-3.00
2018-03-19T07:23:04.940Z,-3.00
2018-03-19T07:24:05.048Z,-3.00
2018-03-19T07:25:04.738Z,-3.00
2018-03-19T07:26:05.321Z,-2.90
2018-03-19T07:27:05.375Z,-2.90
2018-03-19T07:28:05.169Z,-2.90
2018-03-19T07:29:05.146Z,-2.80
2018-03-19T07:30:05.050Z,-2.80
2018-03-19T07:31:05.891Z,-2.80
2018-03-19T07:32:04.864Z,-2.80
2018-03-19T07:33:04.729Z,-2.80
2018-03-19T07:34:04.778Z,-2.80
2018-03-19T07:35:04.683Z,-2.80
2018-03-19T07:36:05.643Z,-2.80
2018-03-19T07:37:04.927Z,-2.80
2018-03-19T07:38:05.033Z,-2.80
2018-03-19T07:39:05.198Z,-2.80
2018-03-19T07:40:05.342Z,-2.80
2018-03-19T07:41:05.480Z,-2.80
2018-03-19T07:42:05.179Z,-2.80
2018-03-19T07:43:05.652Z,-2.80
2018-03-19T07:44:05.185Z,-2.70
2018-03-19T07:45:04.748Z,-2.70
2018-03-19T07:46:04.973Z,-2.70
2018-03-19T07:47:05.120Z,-2.70
2018-03-19T07:48:04.976Z,-2.80
2018-03-19T07:49:04.730Z,-2.70
2018-03-19T07:50:05.508Z,-2.70
2018-03-19T07:51:05.241Z,-2.70
2018-03-19T07:52:05.011Z,-2.70
2018-03-19T07:53:06.968Z,-2.80
2018-03-19T07:54:04.809Z,-2.70
2018-03-19T07:55:04.930Z,-2.70
2018-03-19T07:56:05.418Z,-2.70
2018-03-19T07:57:05.386Z,-2.70
2018-03-19T07:58:05.587Z,-2.70
2018-03-19T07:59:05.081Z,-2.70
2018-03-19T08:00:05.498Z,-2.60
2018-03-19T08:01:05.312Z,-2.60
2018-03-19T08:02:05.310Z,-2.60
2018-03-19T08:03:05.170Z,-2.50
2018-03-19T08:04:05.631Z,-2.50
2018-03-19T08:05:05.238Z,-2.40
2018-03-19T08:06:05.118Z,-2.40
2018-03-19T08:07:04.980Z,-2.40
2018-03-19T08:08:05.586Z,-2.40
2018-03-19T08:09:10.519Z,-2.40
2018-03-19T08:10:05.441Z,-2.40
2018-03-19T08:11:05.514Z,-2.40
2018-03-19T08:12:05.149Z,-2.50
2018-03-19T08:13:05.448Z,-2.50
2018-03-19T08:14:05.286Z,-2.50
2018-03-19T08:15:05.183Z,-2.50
2018-03-19T08:16:04.711Z,-2.50
2018-03-19T08:17:05.185Z,-2.50
2018-03-19T08:18:04.842Z,-2.50
2018-03-19T08:19:05.535Z,-2.50
2018-03-19T08:20:05.578Z,-2.50
2018-03-19T08:21:04.935Z,-2.50
2018-03-19T08:22:05.622Z,-2.50
2018-03-19T08:23:05.431Z,-2.40
2018-03-19T08:24:05.662Z,-2.40
2018-03-19T08:25:04.979Z,-2.40
2018-03-19T08:26:05.375Z,-2.40
2018-03-19T08:27:04.798Z,-2.40
2018-03-19T08:28:05.286Z,-2.40
2018-03-19T08:29:04.976Z,-2.40
2018-03-19T08:30:05.310Z,-2.40
2018-03-19T08:31:04.992Z,-2.40
2018-03-19T08:32:05.311Z,-2.40
2018-03-19T08:33:04.839Z,-2.40
2018-03-19T08:34:05.451Z,-2.40
2018-03-19T08:35:05.209Z,-2.40
2018-03-19T08:36:04.763Z,-2.40
2018-03-19T08:37:05.332Z,-2.30
2018-03-19T08:38:05.538Z,-2.30
2018-03-19T08:39:05.363Z,-2.30
2018-03-19T08:40:05.474Z,-2.20
2018-03-19T08:41:05.715Z,-2.20
2018-03-19T08:42:04.756Z,-2.20
2018-03-19T08:43:05.384Z,-2.20
2018-03-19T08:44:10.485Z,-2.20
2018-03-19T08:45:05.269Z,-2.20
2018-03-19T08:46:05.169Z,-2.20
2018-03-19T08:47:04.961Z,-2.10
2018-03-19T08:48:04.801Z,-2.10
2018-03-19T08:49:06.121Z,-2.10
2018-03-19T08:50:05.561Z,-2.10
2018-03-19T08:51:05.203Z,-2.10
2018-03-19T08:52:05.580Z,-2.10
2018-03-19T08:53:04.690Z,-2.10
2018-03-19T08:54:05.026Z,-2.10
2018-03-19T08:55:04.977Z,-2.10
2018-03-19T08:56:05.446Z,-2.20
2018-03-19T08:57:04.866Z,-2.20
2018-03-19T08:58:04.834Z,-2.20
2018-03-19T08:59:05.465Z,-2.20
2018-03-19T09:00:05.729Z,-2.20
2018-03-19T09:01:05.383Z,-2.20
2018-03-19T09:02:04.770Z,-2.20
2018-03-19T09:03:05.080Z,-2.20
2018-03-19T09:04:04.928Z,-2.20
2018-03-19T09:05:05.228Z,-2.20
2018-03-19T09:06:05.239Z,-2.20
2018-03-19T09:07:04.840Z,-2.20
2018-03-19T09:08:05.395Z,-2.30
2018-03-19T09:09:05.109Z,-2.30
2018-03-19T09:10:05.665Z,-2.40
2018-03-19T09:11:05.009Z,-2.40
2018-03-19T09:12:05.736Z,-2.40
2018-03-19T09:13:05.309Z,-2.40
2018-03-19T09:14:05.638Z,-2.40
2018-03-19T09:15:04.731Z,-2.50
2018-03-19T09:16:04.699Z,-2.40
2018-03-19T09:17:04.722Z,-2.40
2018-03-19T09:18:04.728Z,-2.40
2018-03-19T09:19:05.213Z,-2.40
2018-03-19T09:20:05.420Z,-2.40
2018-03-19T09:21:06.644Z,-2.40
2018-03-19T09:22:05.126Z,-2.40
2018-03-19T09:23:05.106Z,-2.40
2018-03-19T09:24:04.907Z,-2.40
2018-03-19T09:25:04.840Z,-2.40
2018-03-19T09:26:04.754Z,-2.40
2018-03-19T09:27:05.313Z,-2.30
2018-03-19T09:28:05.099Z,-2.30
2018-03-19T09:29:04.895Z,-2.30
2018-03-19T09:30:05.637Z,-2.20
2018-03-19T09:31:05.600Z,-2.20
2018-03-19T09:32:05.467Z,-2.20
2018-03-19T09:33:05.368Z,-2.20
2018-03-19T09:34:04.907Z,-2.20
2018-03-19T09:35:04.733Z,-2.20
2018-03-19T09:36:05.830Z,-2.20
2018-03-19T09:37:05.389Z,-2.20
2018-03-19T09:38:05.201Z,-2.20
2018-03-19T09:39:05.116Z,-2.20
2018-03-19T09:40:05.035Z,-2.20
2018-03-19T09:41:04.655Z,-2.20
2018-03-19T09:42:04.811Z,-2.10
2018-03-19T09:43:04.750Z,-2.10
2018-03-19T09:44:05.643Z,-2.10
2018-03-19T09:45:05.191Z,-2.10
2018-03-19T09:46:05.142Z,-2.10
2018-03-19T09:47:05.172Z,-2.10
2018-03-19T09:48:04.708Z,-2.10
2018-03-19T09:49:04.793Z,-2.10
2018-03-19T09:50:04.916Z,-2.10
2018-03-19T09:51:05.544Z,-2.10
2018-03-19T09:52:05.625Z,-2.10
2018-03-19T09:53:05.518Z,-2.00
2018-03-19T09:54:05.102Z,-2.00
2018-03-19T09:55:05.093Z,-2.00
2018-03-19T09:56:05.021Z,-2.00
2018-03-19T09:57:04.822Z,-2.10
2018-03-19T09:58:04.748Z,-2.10
2018-03-19T09:59:04.787Z,-2.10
2018-03-19T10:00:04.721Z,-2.10
2018-03-19T10:01:04.948Z,-2.10
2018-03-19T10:02:05.069Z,-2.10
2018-03-19T10:03:04.833Z,-2.00
2018-03-19T10:04:05.696Z,-2.10
2018-03-19T10:05:05.599Z,-2.10
2018-03-19T10:06:05.183Z,-2.00
2018-03-19T10:07:05.202Z,-2.00
2018-03-19T10:08:05.312Z,-2.00
2018-03-19T10:09:04.730Z,-2.00
2018-03-19T10:10:05.635Z,-2.00
2018-03-19T10:11:04.984Z,-2.00
2018-03-19T10:12:05.498Z,-2.00
2018-03-19T10:13:05.078Z,-2.00
2018-03-19T10:14:05.495Z,-2.00
2018-03-19T10:15:05.183Z,-2.00
2018-03-19T10:16:05.200Z,-2.00
2018-03-19T10:17:04.884Z,-2.00
2018-03-19T10:18:05.587Z,-1.90
2018-03-19T10:19:05.261Z,-1.90
2018-03-19T10:20:05.156Z,-1.90
2018-03-19T10:21:05.102Z,-1.90
2018-03-19T10:22:04.891Z,-1.80
2018-03-19T10:23:04.919Z,-1.70
2018-03-19T10:24:05.307Z,-1.70
2018-03-19T10:25:05.086Z,-1.70
2018-03-19T10:26:05.259Z,-1.60
2018-03-19T10:27:05.065Z,-1.60
2018-03-19T10:28:05.532Z,-1.60
2018-03-19T10:29:05.413Z,-1.60
2018-03-19T10:30:05.349Z,-1.60
2018-03-19T10:31:05.366Z,-1.60
2018-03-19T10:32:05.279Z,-1.60
2018-03-19T10:33:05.147Z,-1.70
2018-03-19T10:34:05.111Z,-1.70
2018-03-19T10:35:05.426Z,-1.70
2018-03-19T10:36:05.055Z,-1.70
2018-03-19T10:37:05.174Z,-1.80
2018-03-19T10:38:05.372Z,-1.80
2018-03-19T10:39:05.512Z,-1.80
2018-03-19T10:40:05.561Z,-1.80
2018-03-19T10:41:04.983Z,-1.80
2018-03-19T10:42:05.680Z,-1.80
2018-03-19T10:43:05.081Z,-1.80
2018-03-19T10:44:05.282Z,-1.80
2018-03-19T10:45:05.086Z,-1.80
2018-03-19T10:46:04.828Z,-1.70
2018-03-19T10:47:04.733Z,-1.70
2018-03-19T10:48:05.418Z,-1.70
2018-03-19T10:49:04.916Z,-1.70
2018-03-19T10:50:04.717Z,-1.70
2018-03-19T10:51:05.396Z,-1.70
2018-03-19T10:52:05.167Z,-1.70
2018-03-19T10:53:05.324Z,-1.70
2018-03-19T10:54:04.776Z,-1.70
2018-03-19T10:55:05.597Z,-1.70
2018-03-19T10:56:05.151Z,-1.70
2018-03-19T10:57:05.647Z,-1.60
2018-03-19T10:58:05.411Z,-1.60
2018-03-19T10:59:05.184Z,-1.60
2018-03-19T11:00:04.983Z,-1.60
2018-03-19T11:01:04.754Z,-1.60
2018-03-19T11:02:05.511Z,-1.60
2018-03-19T11:03:04.874Z,-1.60
2018-03-19T11:04:04.713Z,-1.60
2018-03-19T11:05:04.850Z,-1.60
2018-03-19T11:06:05.470Z,-1.50
2018-03-19T11:07:05.593Z,-1.50
2018-03-19T11:08:05.593Z,-1.50
2018-03-19T11:09:05.520Z,-1.40
2018-03-19T11:10:05.058Z,-1.40
2018-03-19T11:11:05.616Z,-1.40
2018-03-19T11:12:05.609Z,-1.40
2018-03-19T11:13:05.401Z,-1.40
2018-03-19T11:14:04.830Z,-1.30
2018-03-19T11:15:04.934Z,-1.40
2018-03-19T11:16:04.633Z,-1.40
2018-03-19T11:17:05.032Z,-1.40
2018-03-19T11:18:05.408Z,-1.40
2018-03-19T11:19:04.997Z,-1.40
2018-03-19T11:20:05.713Z,-1.40
2018-03-19T11:21:05.688Z,-1.40
2018-03-19T11:22:05.643Z,-1.40
2018-03-19T11:23:04.986Z,-1.40
2018-03-19T11:24:05.012Z,-1.40
2018-03-19T11:25:04.953Z,-1.40
2018-03-19T11:26:04.862Z,-1.40
2018-03-19T11:27:05.416Z,-1.40
2018-03-19T11:28:04.975Z,-1.40
2018-03-19T11:29:05.628Z,-1.50
2018-03-19T11:30:05.506Z,-1.50
2018-03-19T11:31:05.093Z,-1.50
2018-03-19T11:32:05.029Z,-1.50
2018-03-19T11:33:04.765Z,-1.50
2018-03-19T11:34:05.172Z,-1.40
2018-03-19T11:35:04.850Z,-1.50
2018-03-19T11:36:05.495Z,-1.40
2018-03-19T11:37:05.443Z,-1.50
2018-03-19T11:38:05.491Z,-1.50
2018-03-19T11:39:05.097Z,-1.50
2018-03-19T11:40:04.661Z,-1.50
2018-03-19T11:41:04.954Z,-1.50
2018-03-19T11:42:04.703Z,-1.50
2018-03-19T11:43:05.585Z,-1.50
2018-03-19T11:44:05.241Z,-1.40
2018-03-19T11:45:05.522Z,-1.40
2018-03-19T11:46:05.389Z,-1.40
2018-03-19T11:47:05.252Z,-1.40
2018-03-19T11:48:04.962Z,-1.40
2018-03-19T11:49:04.852Z,-1.40
2018-03-19T11:50:05.444Z,-1.40
2018-03-19T11:51:05.560Z,-1.40
2018-03-19T11:52:05.372Z,-1.40
2018-03-19T11:53:04.671Z,-1.40
2018-03-19T11:54:05.373Z,-1.40
2018-03-19T11:55:04.912Z,-1.40
2018-03-19T11:56:05.333Z,-1.40
2018-03-19T11:57:05.453Z,-1.40
2018-03-19T11:58:05.701Z,-1.40
2018-03-19T11:59:05.343Z,-1.40
2018-03-19T12:00:05.236Z,-1.40
2018-03-19T12:01:05.261Z,-1.40
2018-03-19T12:02:05.282Z,-1.50
2018-03-19T12:03:05.333Z,-1.50
2018-03-19T12:04:05.518Z,-1.50
2018-03-19T12:05:05.584Z,-1.50
2018-03-19T12:06:05.266Z,-1.50
2018-03-19T12:07:04.837Z,-1.50
2018-03-19T12:08:05.420Z,-1.40
2018-03-19T12:09:05.223Z,-1.40
2018-03-19T12:10:04.900Z,-1.30
2018-03-19T12:11:04.961Z,-1.30
2018-03-19T12:12:04.741Z,-1.30
2018-03-19T12:13:05.478Z,-1.30
2018-03-19T12:14:05.443Z,-1.20
2018-03-19T12:15:05.152Z,-1.20
2018-03-19T12:16:04.593Z,-1.20
2018-03-19T12:17:05.238Z,-1.20
2018-03-19T12:18:04.919Z,-1.20
2018-03-19T12:19:04.804Z,-1.20
2018-03-19T12:20:04.972Z,-1.20
2018-03-19T12:21:04.764Z,-1.20
2018-03-19T12:22:05.425Z,-1.20
2018-03-19T12:23:05.392Z,-1.20
2018-03-19T12:24:05.487Z,-1.20
2018-03-19T12:25:04.966Z,-1.20
2018-03-19T12:26:04.940Z,-1.20
2018-03-19T12:27:05.603Z,-1.20
2018-03-19T12:28:04.720Z,-1.20
2018-03-19T12:29:04.824Z,-1.20
2018-03-19T12:30:04.829Z,-1.20
2018-03-19T12:31:05.332Z,-1.20
2018-03-19T12:32:04.950Z,-1.30
2018-03-19T12:33:05.027Z,-1.30
2018-03-19T12:34:04.838Z,-1.30
2018-03-19T12:35:05.551Z,-1.30
2018-03-19T12:36:05.553Z,-1.30
2018-03-19T12:37:04.758Z,-1.30
2018-03-19T12:38:05.084Z,-1.30
2018-03-19T12:39:05.372Z,-1.30
2018-03-19T12:40:05.406Z,-1.30
2018-03-19T12:41:04.937Z,-1.30
2018-03-19T12:42:04.716Z,-1.30
2018-03-19T12:43:05.527Z,-1.30
2018-03-19T12:44:04.652Z,-1.30
2018-03-19T12:45:04.694Z,-1.30
2018-03-19T12:46:05.060Z,-1.30
2018-03-19T12:47:04.924Z,-1.30
2018-03-19T12:48:04.982Z,-1.30
2018-03-19T12:49:04.986Z,-1.30
2018-03-19T12:50:05.040Z,-1.30
2018-03-19T12:51:05.412Z,-1.30
2018-03-19T12:52:05.357Z,-1.30